sensor_id;sensor_type;location;lat;lon;timestamp;pressure;altitude;pressure_sealevel;temperature;humidity
62402;BME280;48440;51.224;22.506;2023-05-11T00:00:30;99710.75;;;10.08;43.60
62402;BME280;48440;51.224;22.506;2023-05-11T00:02:56;99709.69;;;10.09;43.31
62402;BME280;48440;51.224;22.506;2023-05-11T00:05:21;99707.44;;;10.06;43.29
62402;BME280;48440;51.224;22.506;2023-05-11T00:07:47;99712.28;;;10.04;43.29
62402;BME280;48440;51.224;22.506;2023-05-11T00:10:12;99711.81;;;9.95;43.38
62402;BME280;48440;51.224;22.506;2023-05-11T00:12:38;99713.00;;;9.99;43.27
62402;BME280;48440;51.224;22.506;2023-05-11T00:15:04;99713.81;;;10.00;43.32
62402;BME280;48440;51.224;22.506;2023-05-11T00:17:29;99712.88;;;9.94;43.58
62402;BME280;48440;51.224;22.506;2023-05-11T00:19:55;99705.47;;;9.90;43.88
62402;BME280;48440;51.224;22.506;2023-05-11T00:22:20;99704.81;;;9.82;43.92
62402;BME280;48440;51.224;22.506;2023-05-11T00:24:46;99712.59;;;9.79;44.09
62402;BME280;48440;51.224;22.506;2023-05-11T00:27:11;99707.16;;;9.79;44.12
62402;BME280;48440;51.224;22.506;2023-05-11T00:29:37;99709.28;;;9.77;44.04
62402;BME280;48440;51.224;22.506;2023-05-11T00:32:02;99714.59;;;9.72;43.92
62402;BME280;48440;51.224;22.506;2023-05-11T00:34:28;99707.88;;;9.74;44.06
62402;BME280;48440;51.224;22.506;2023-05-11T00:36:53;99715.56;;;9.66;44.10
62402;BME280;48440;51.224;22.506;2023-05-11T00:39:19;99706.00;;;9.63;44.35
62402;BME280;48440;51.224;22.506;2023-05-11T00:41:44;99695.41;;;9.62;44.66
62402;BME280;48440;51.224;22.506;2023-05-11T00:44:10;99697.56;;;9.60;44.28
62402;BME280;48440;51.224;22.506;2023-05-11T00:46:36;99707.22;;;9.56;44.80
62402;BME280;48440;51.224;22.506;2023-05-11T00:49:02;99700.75;;;9.57;44.52
62402;BME280;48440;51.224;22.506;2023-05-11T00:51:28;99699.91;;;9.56;44.85
62402;BME280;48440;51.224;22.506;2023-05-11T00:53:57;99692.03;;;9.55;44.49
62402;BME280;48440;51.224;22.506;2023-05-11T00:56:22;99688.16;;;9.50;44.28
62402;BME280;48440;51.224;22.506;2023-05-11T00:58:48;99693.44;;;9.45;44.93
62402;BME280;48440;51.224;22.506;2023-05-11T01:01:13;99692.63;;;9.45;45.01
62402;BME280;48440;51.224;22.506;2023-05-11T01:03:42;99692.41;;;9.35;44.87
62402;BME280;48440;51.224;22.506;2023-05-11T01:06:10;99691.31;;;9.36;45.53
62402;BME280;48440;51.224;22.506;2023-05-11T01:09:01;99691.59;;;9.34;45.16
62402;BME280;48440;51.224;22.506;2023-05-11T01:11:41;99691.59;;;9.34;45.25
62402;BME280;48440;51.224;22.506;2023-05-11T01:14:20;99689.22;;;9.26;45.69
62402;BME280;48440;51.224;22.506;2023-05-11T01:16:55;99691.72;;;9.28;45.53
62402;BME280;48440;51.224;22.506;2023-05-11T01:19:47;99686.19;;;9.23;45.77
62402;BME280;48440;51.224;22.506;2023-05-11T01:30:39;99693.00;;;9.13;45.97
62402;BME280;48440;51.224;22.506;2023-05-11T01:33:12;99693.72;;;9.09;46.04
62402;BME280;48440;51.224;22.506;2023-05-11T01:35:47;99694.56;;;9.09;46.19
62402;BME280;48440;51.224;22.506;2023-05-11T01:38:17;99691.94;;;9.03;46.38
62402;BME280;48440;51.224;22.506;2023-05-11T01:40:49;99693.13;;;8.95;47.15
62402;BME280;48440;51.224;22.506;2023-05-11T01:43:20;99694.03;;;8.89;47.23
62402;BME280;48440;51.224;22.506;2023-05-11T01:45:48;99691.00;;;8.97;46.76
62402;BME280;48440;51.224;22.506;2023-05-11T01:48:20;99688.41;;;8.91;46.92
62402;BME280;48440;51.224;22.506;2023-05-11T01:50:47;99690.75;;;8.87;46.93
62402;BME280;48440;51.224;22.506;2023-05-11T01:53:14;99682.84;;;8.85;47.05
62402;BME280;48440;51.224;22.506;2023-05-11T01:55:42;99684.88;;;8.78;47.33
62402;BME280;48440;51.224;22.506;2023-05-11T01:58:12;99693.69;;;8.74;47.27
62402;BME280;48440;51.224;22.506;2023-05-11T02:00:40;99694.75;;;8.73;47.61
62402;BME280;48440;51.224;22.506;2023-05-11T02:03:07;99691.69;;;8.69;47.46
62402;BME280;48440;51.224;22.506;2023-05-11T02:05:33;99693.31;;;8.70;47.41
62402;BME280;48440;51.224;22.506;2023-05-11T02:08:00;99682.88;;;8.74;47.38
62402;BME280;48440;51.224;22.506;2023-05-11T02:10:27;99689.81;;;8.70;47.66
62402;BME280;48440;51.224;22.506;2023-05-11T02:12:53;99684.16;;;8.71;47.61
62402;BME280;48440;51.224;22.506;2023-05-11T02:15:21;99691.09;;;8.67;47.38
62402;BME280;48440;51.224;22.506;2023-05-11T02:17:49;99679.44;;;8.67;47.30
62402;BME280;48440;51.224;22.506;2023-05-11T02:20:16;99687.56;;;8.55;48.13
62402;BME280;48440;51.224;22.506;2023-05-11T02:22:43;99685.66;;;8.56;47.93
62402;BME280;48440;51.224;22.506;2023-05-11T02:25:10;99686.97;;;8.53;48.07
62402;BME280;48440;51.224;22.506;2023-05-11T02:27:36;99680.72;;;8.53;47.72
62402;BME280;48440;51.224;22.506;2023-05-11T02:30:04;99680.25;;;8.56;47.78
62402;BME280;48440;51.224;22.506;2023-05-11T02:32:32;99694.25;;;8.53;47.30
62402;BME280;48440;51.224;22.506;2023-05-11T02:35:04;99691.19;;;8.49;47.56
62402;BME280;48440;51.224;22.506;2023-05-11T02:37:32;99685.63;;;8.44;47.79
62402;BME280;48440;51.224;22.506;2023-05-11T02:40:06;99692.69;;;8.45;47.68
62402;BME280;48440;51.224;22.506;2023-05-11T02:42:37;99696.00;;;8.47;47.73
62402;BME280;48440;51.224;22.506;2023-05-11T02:45:06;99692.91;;;8.43;47.72
62402;BME280;48440;51.224;22.506;2023-05-11T02:47:38;99693.97;;;8.42;47.76
62402;BME280;48440;51.224;22.506;2023-05-11T02:50:05;99692.47;;;8.46;47.75
62402;BME280;48440;51.224;22.506;2023-05-11T02:52:34;99700.66;;;8.40;48.15
62402;BME280;48440;51.224;22.506;2023-05-11T02:55:01;99701.72;;;8.39;47.94
62402;BME280;48440;51.224;22.506;2023-05-11T02:57:27;99696.16;;;8.34;47.92
62402;BME280;48440;51.224;22.506;2023-05-11T02:59:53;99701.13;;;8.37;47.80
62402;BME280;48440;51.224;22.506;2023-05-11T03:02:19;99702.31;;;8.41;47.57
62402;BME280;48440;51.224;22.506;2023-05-11T03:04:44;99703.13;;;8.41;47.92
62402;BME280;48440;51.224;22.506;2023-05-11T03:07:10;99701.25;;;8.42;47.81
62402;BME280;48440;51.224;22.506;2023-05-11T03:09:35;99700.22;;;8.43;47.49
62402;BME280;48440;51.224;22.506;2023-05-11T03:12:02;99706.91;;;8.40;47.36
62402;BME280;48440;51.224;22.506;2023-05-11T03:14:33;99706.44;;;8.43;47.64
62402;BME280;48440;51.224;22.506;2023-05-11T03:17:00;99712.91;;;8.42;47.56
62402;BME280;48440;51.224;22.506;2023-05-11T03:19:27;99704.34;;;8.45;47.73
62402;BME280;48440;51.224;22.506;2023-05-11T03:21:53;99706.81;;;8.47;47.65
62402;BME280;48440;51.224;22.506;2023-05-11T03:24:20;99710.19;;;8.42;47.72
62402;BME280;48440;51.224;22.506;2023-05-11T03:26:47;99708.09;;;8.44;47.69
62402;BME280;48440;51.224;22.506;2023-05-11T03:29:14;99705.03;;;8.41;47.77
62402;BME280;48440;51.224;22.506;2023-05-11T03:31:41;99709.84;;;8.39;47.91
62402;BME280;48440;51.224;22.506;2023-05-11T03:34:06;99711.94;;;8.37;47.71
62402;BME280;48440;51.224;22.506;2023-05-11T03:36:32;99711.34;;;8.35;47.84
62402;BME280;48440;51.224;22.506;2023-05-11T03:38:58;99710.66;;;8.39;48.02
62402;BME280;48440;51.224;22.506;2023-05-11T03:41:25;99707.59;;;8.36;47.78
62402;BME280;48440;51.224;22.506;2023-05-11T03:43:53;99710.06;;;8.37;47.95
62402;BME280;48440;51.224;22.506;2023-05-11T03:46:20;99716.53;;;8.36;47.94
62402;BME280;48440;51.224;22.506;2023-05-11T03:48:47;99711.75;;;8.32;47.70
62402;BME280;48440;51.224;22.506;2023-05-11T03:51:13;99713.75;;;8.25;48.01
62402;BME280;48440;51.224;22.506;2023-05-11T03:53:39;99723.66;;;8.31;47.73
62402;BME280;48440;51.224;22.506;2023-05-11T03:56:05;99722.97;;;8.35;48.26
62402;BME280;48440;51.224;22.506;2023-05-11T03:58:37;99721.69;;;8.38;48.22
62402;BME280;48440;51.224;22.506;2023-05-11T04:01:03;99719.03;;;8.49;47.79
62402;BME280;48440;51.224;22.506;2023-05-11T04:03:30;99718.22;;;8.49;48.07
62402;BME280;48440;51.224;22.506;2023-05-11T04:05:55;99724.47;;;8.61;47.42
62402;BME280;48440;51.224;22.506;2023-05-11T04:08:21;99732.41;;;8.74;47.70
62402;BME280;48440;51.224;22.506;2023-05-11T04:10:46;99716.75;;;8.88;47.00
62402;BME280;48440;51.224;22.506;2023-05-11T04:13:12;99715.84;;;9.06;46.84
62402;BME280;48440;51.224;22.506;2023-05-11T04:15:37;99718.66;;;9.23;46.74
62402;BME280;48440;51.224;22.506;2023-05-11T04:18:03;99725.00;;;9.40;46.82
62402;BME280;48440;51.224;22.506;2023-05-11T04:20:28;99720.88;;;9.49;46.49
62402;BME280;48440;51.224;22.506;2023-05-11T04:22:54;99719.91;;;9.67;45.92
62402;BME280;48440;51.224;22.506;2023-05-11T04:25:19;99719.91;;;9.78;45.46
62402;BME280;48440;51.224;22.506;2023-05-11T04:27:45;99717.66;;;9.87;45.10
62402;BME280;48440;51.224;22.506;2023-05-11T04:30:11;99718.19;;;10.01;45.14
62402;BME280;48440;51.224;22.506;2023-05-11T04:32:36;99723.47;;;10.07;45.73
62402;BME280;48440;51.224;22.506;2023-05-11T04:35:02;99720.25;;;10.22;44.75
62402;BME280;48440;51.224;22.506;2023-05-11T04:37:27;99725.97;;;10.37;44.61
62402;BME280;48440;51.224;22.506;2023-05-11T04:39:52;99725.09;;;10.48;43.85
62402;BME280;48440;51.224;22.506;2023-05-11T04:42:18;99729.72;;;10.65;44.20
62402;BME280;48440;51.224;22.506;2023-05-11T04:44:43;99730.22;;;10.78;44.51
62402;BME280;48440;51.224;22.506;2023-05-11T04:47:09;99728.19;;;10.85;43.30
62402;BME280;48440;51.224;22.506;2023-05-11T04:49:34;99734.25;;;10.93;43.60
62402;BME280;48440;51.224;22.506;2023-05-11T04:52:00;99732.06;;;11.06;42.86
62402;BME280;48440;51.224;22.506;2023-05-11T04:54:25;99729.56;;;11.21;42.49
62402;BME280;48440;51.224;22.506;2023-05-11T04:56:51;99728.53;;;11.44;42.00
62402;BME280;48440;51.224;22.506;2023-05-11T04:59:16;99737.66;;;11.55;41.84
62402;BME280;48440;51.224;22.506;2023-05-11T05:01:42;99729.16;;;11.68;42.08
62402;BME280;48440;51.224;22.506;2023-05-11T05:04:07;99737.22;;;11.80;41.43
62402;BME280;48440;51.224;22.506;2023-05-11T05:06:32;99734.38;;;12.13;41.27
62402;BME280;48440;51.224;22.506;2023-05-11T05:08:58;99741.19;;;12.38;40.63
62402;BME280;48440;51.224;22.506;2023-05-11T05:11:24;99742.91;;;12.49;40.50
62402;BME280;48440;51.224;22.506;2023-05-11T05:13:49;99742.16;;;12.53;39.89
62402;BME280;48440;51.224;22.506;2023-05-11T05:16:15;99747.75;;;12.69;39.57
62402;BME280;48440;51.224;22.506;2023-05-11T05:18:40;99743.22;;;12.79;39.14
62402;BME280;48440;51.224;22.506;2023-05-11T05:21:06;99743.13;;;13.01;39.35
62402;BME280;48440;51.224;22.506;2023-05-11T05:23:31;99743.59;;;13.20;38.86
62402;BME280;48440;51.224;22.506;2023-05-11T05:25:57;99748.66;;;13.43;38.03
62402;BME280;48440;51.224;22.506;2023-05-11T05:28:22;99748.13;;;13.41;37.99
62402;BME280;48440;51.224;22.506;2023-05-11T05:30:47;99753.88;;;13.45;37.71
62402;BME280;48440;51.224;22.506;2023-05-11T05:33:13;99746.81;;;13.49;37.89
62402;BME280;48440;51.224;22.506;2023-05-11T05:35:39;99750.22;;;13.71;38.24
62402;BME280;48440;51.224;22.506;2023-05-11T05:38:04;99746.03;;;14.11;38.09
62402;BME280;48440;51.224;22.506;2023-05-11T05:40:30;99746.91;;;14.26;38.01
62402;BME280;48440;51.224;22.506;2023-05-11T05:42:55;99742.63;;;14.46;37.39
62402;BME280;48440;51.224;22.506;2023-05-11T05:45:21;99748.66;;;14.63;36.29
62402;BME280;48440;51.224;22.506;2023-05-11T05:47:46;99742.41;;;14.78;35.87
62402;BME280;48440;51.224;22.506;2023-05-11T05:50:13;99747.06;;;14.92;36.61
62402;BME280;48440;51.224;22.506;2023-05-11T05:52:38;99746.22;;;15.12;35.87
62402;BME280;48440;51.224;22.506;2023-05-11T05:55:04;99733.94;;;15.15;35.69
62402;BME280;48440;51.224;22.506;2023-05-11T05:57:30;99753.06;;;15.35;35.70
62402;BME280;48440;51.224;22.506;2023-05-11T05:59:55;99748.16;;;15.32;35.33
62402;BME280;48440;51.224;22.506;2023-05-11T06:02:21;99743.22;;;15.49;35.21
62402;BME280;48440;51.224;22.506;2023-05-11T06:04:46;99745.41;;;15.47;34.32
62402;BME280;48440;51.224;22.506;2023-05-11T06:07:12;99745.41;;;15.27;33.88
62402;BME280;48440;51.224;22.506;2023-05-11T06:09:38;99739.97;;;15.32;34.50
62402;BME280;48440;51.224;22.506;2023-05-11T06:12:04;99745.41;;;15.47;34.97
62402;BME280;48440;51.224;22.506;2023-05-11T06:14:30;99744.53;;;15.77;35.22
62402;BME280;48440;51.224;22.506;2023-05-11T06:16:56;99742.53;;;16.08;35.43
62402;BME280;48440;51.224;22.506;2023-05-11T06:19:22;99746.81;;;16.24;34.48
62402;BME280;48440;51.224;22.506;2023-05-11T06:21:47;99745.50;;;16.12;33.70
62402;BME280;48440;51.224;22.506;2023-05-11T06:24:13;99745.19;;;16.23;33.79
62402;BME280;48440;51.224;22.506;2023-05-11T06:26:38;99745.47;;;16.22;33.60
62402;BME280;48440;51.224;22.506;2023-05-11T06:29:06;99746.16;;;16.48;34.56
62402;BME280;48440;51.224;22.506;2023-05-11T06:31:32;99743.53;;;16.77;34.12
62402;BME280;48440;51.224;22.506;2023-05-11T06:33:58;99752.94;;;17.00;33.59
62402;BME280;48440;51.224;22.506;2023-05-11T06:36:23;99747.59;;;16.84;32.93
62402;BME280;48440;51.224;22.506;2023-05-11T06:38:49;99752.25;;;16.84;32.89
62402;BME280;48440;51.224;22.506;2023-05-11T06:41:15;99747.97;;;16.68;33.96
62402;BME280;48440;51.224;22.506;2023-05-11T06:43:40;99754.19;;;16.83;33.90
62402;BME280;48440;51.224;22.506;2023-05-11T06:46:06;99748.13;;;16.86;33.69
62402;BME280;48440;51.224;22.506;2023-05-11T06:48:31;99745.03;;;16.93;33.98
62402;BME280;48440;51.224;22.506;2023-05-11T06:50:57;99755.41;;;17.01;33.94
62402;BME280;48440;51.224;22.506;2023-05-11T06:53:22;99748.59;;;16.93;33.47
62402;BME280;48440;51.224;22.506;2023-05-11T06:55:48;99755.28;;;17.16;34.28
62402;BME280;48440;51.224;22.506;2023-05-11T06:58:13;99747.59;;;17.47;34.33
62402;BME280;48440;51.224;22.506;2023-05-11T07:00:39;99740.38;;;17.85;34.80
62402;BME280;48440;51.224;22.506;2023-05-11T07:03:05;99748.19;;;17.97;33.53
62402;BME280;48440;51.224;22.506;2023-05-11T07:05:31;99748.31;;;18.11;33.62
62402;BME280;48440;51.224;22.506;2023-05-11T07:07:57;99751.06;;;18.11;33.31
62402;BME280;48440;51.224;22.506;2023-05-11T07:10:22;99743.13;;;18.28;33.69
62402;BME280;48440;51.224;22.506;2023-05-11T07:12:48;99748.44;;;18.43;32.95
62402;BME280;48440;51.224;22.506;2023-05-11T07:15:14;99748.41;;;18.67;33.43
62402;BME280;48440;51.224;22.506;2023-05-11T07:17:39;99743.19;;;18.84;32.96
62402;BME280;48440;51.224;22.506;2023-05-11T07:20:05;99750.09;;;18.82;33.33
62402;BME280;48440;51.224;22.506;2023-05-11T07:22:30;99748.84;;;18.74;32.30
62402;BME280;48440;51.224;22.506;2023-05-11T07:24:56;99737.66;;;18.47;31.72
62402;BME280;48440;51.224;22.506;2023-05-11T07:27:21;99757.50;;;18.20;32.07
62402;BME280;48440;51.224;22.506;2023-05-11T07:29:47;99758.47;;;18.10;33.13
62402;BME280;48440;51.224;22.506;2023-05-11T07:32:12;99741.72;;;18.30;32.14
62402;BME280;48440;51.224;22.506;2023-05-11T07:34:37;99748.19;;;17.97;32.52
62402;BME280;48440;51.224;22.506;2023-05-11T07:37:05;99755.06;;;17.94;32.63
62402;BME280;48440;51.224;22.506;2023-05-11T07:39:32;99746.69;;;18.28;33.26
62402;BME280;48440;51.224;22.506;2023-05-11T07:41:58;99748.56;;;18.33;31.81
62402;BME280;48440;51.224;22.506;2023-05-11T07:44:23;99742.41;;;17.98;32.65
62402;BME280;48440;51.224;22.506;2023-05-11T07:46:49;99741.59;;;17.98;33.32
62402;BME280;48440;51.224;22.506;2023-05-11T07:49:14;99750.22;;;18.34;33.36
62402;BME280;48440;51.224;22.506;2023-05-11T07:51:39;99751.97;;;18.68;32.28
62402;BME280;48440;51.224;22.506;2023-05-11T07:54:05;99750.75;;;18.74;31.24
62402;BME280;48440;51.224;22.506;2023-05-11T07:56:30;99747.81;;;18.27;30.68
62402;BME280;48440;51.224;22.506;2023-05-11T07:58:56;99755.69;;;18.34;31.78
62402;BME280;48440;51.224;22.506;2023-05-11T08:01:21;99748.88;;;18.50;31.36
62402;BME280;48440;51.224;22.506;2023-05-11T08:03:46;99752.63;;;18.59;31.23
62402;BME280;48440;51.224;22.506;2023-05-11T08:06:12;99748.16;;;18.82;30.02
62402;BME280;48440;51.224;22.506;2023-05-11T08:08:37;99758.88;;;18.84;29.34
62402;BME280;48440;51.224;22.506;2023-05-11T08:11:03;99753.31;;;18.89;29.14
62402;BME280;48440;51.224;22.506;2023-05-11T08:13:30;99757.38;;;18.73;29.37
62402;BME280;48440;51.224;22.506;2023-05-11T08:15:55;99753.16;;;18.80;29.55
62402;BME280;48440;51.224;22.506;2023-05-11T08:18:21;99750.03;;;18.87;28.96
62402;BME280;48440;51.224;22.506;2023-05-11T08:20:46;99759.25;;;18.96;29.41
62402;BME280;48440;51.224;22.506;2023-05-11T08:23:12;99757.09;;;18.93;28.95
62402;BME280;48440;51.224;22.506;2023-05-11T08:25:52;99746.28;;;19.15;29.27
62402;BME280;48440;51.224;22.506;2023-05-11T08:28:18;99741.09;;;19.27;28.47
62402;BME280;48440;51.224;22.506;2023-05-11T08:30:44;99744.88;;;19.31;28.43
62402;BME280;48440;51.224;22.506;2023-05-11T08:33:10;99748.47;;;19.32;28.37
62402;BME280;48440;51.224;22.506;2023-05-11T08:35:37;99740.69;;;19.53;28.30
62402;BME280;48440;51.224;22.506;2023-05-11T08:38:03;99733.38;;;19.62;27.77
62402;BME280;48440;51.224;22.506;2023-05-11T08:40:29;99728.50;;;19.86;27.24
62402;BME280;48440;51.224;22.506;2023-05-11T08:42:55;99731.25;;;19.73;27.26
62402;BME280;48440;51.224;22.506;2023-05-11T08:45:21;99731.03;;;19.69;27.30
62402;BME280;48440;51.224;22.506;2023-05-11T08:47:47;99731.94;;;19.78;27.14
62402;BME280;48440;51.224;22.506;2023-05-11T08:50:13;99733.28;;;19.81;27.05
62402;BME280;48440;51.224;22.506;2023-05-11T08:52:39;99750.00;;;19.84;25.74
62402;BME280;48440;51.224;22.506;2023-05-11T08:55:06;99724.22;;;19.34;25.75
62402;BME280;48440;51.224;22.506;2023-05-11T08:57:33;99728.50;;;19.40;26.65
62402;BME280;48440;51.224;22.506;2023-05-11T09:00:01;99728.91;;;19.66;26.26
62402;BME280;48440;51.224;22.506;2023-05-11T09:02:27;99732.19;;;19.49;25.42
62402;BME280;48440;51.224;22.506;2023-05-11T09:04:53;99726.91;;;19.53;25.24
62402;BME280;48440;51.224;22.506;2023-05-11T09:07:20;99733.72;;;19.42;25.94
62402;BME280;48440;51.224;22.506;2023-05-11T09:09:47;99739.38;;;19.18;25.25
62402;BME280;48440;51.224;22.506;2023-05-11T09:12:15;99734.44;;;18.63;26.16
62402;BME280;48440;51.224;22.506;2023-05-11T09:14:40;99737.31;;;18.72;26.20
62402;BME280;48440;51.224;22.506;2023-05-11T09:17:06;99733.25;;;18.88;25.83
62402;BME280;48440;51.224;22.506;2023-05-11T09:19:31;99726.09;;;18.87;25.28
62402;BME280;48440;51.224;22.506;2023-05-11T09:21:58;99742.53;;;18.92;24.90
62402;BME280;48440;51.224;22.506;2023-05-11T09:24:24;99732.00;;;18.62;25.00
62402;BME280;48440;51.224;22.506;2023-05-11T09:27:08;99730.94;;;18.77;25.55
62402;BME280;48440;51.224;22.506;2023-05-11T09:29:34;99737.19;;;18.63;25.17
62402;BME280;48440;51.224;22.506;2023-05-11T09:31:59;99733.00;;;18.85;24.72
62402;BME280;48440;51.224;22.506;2023-05-11T09:34:25;99730.41;;;18.93;25.49
62402;BME280;48440;51.224;22.506;2023-05-11T09:36:52;99729.78;;;19.15;25.54
62402;BME280;48440;51.224;22.506;2023-05-11T09:39:35;99730.03;;;19.32;25.64
62402;BME280;48440;51.224;22.506;2023-05-11T09:42:11;99721.63;;;19.56;25.59
62402;BME280;48440;51.224;22.506;2023-05-11T09:44:38;99733.75;;;19.23;25.03
62402;BME280;48440;51.224;22.506;2023-05-11T09:47:10;99731.88;;;19.05;25.00
62402;BME280;48440;51.224;22.506;2023-05-11T09:49:37;99731.91;;;18.86;25.35
62402;BME280;48440;51.224;22.506;2023-05-11T09:52:03;99726.09;;;18.87;25.57
62402;BME280;48440;51.224;22.506;2023-05-11T09:54:29;99722.97;;;18.94;26.21
62402;BME280;48440;51.224;22.506;2023-05-11T09:56:54;99721.00;;;19.13;25.83
62402;BME280;48440;51.224;22.506;2023-05-11T09:59:39;99717.66;;;18.97;25.36
62402;BME280;48440;51.224;22.506;2023-05-11T10:04:40;99706.56;;;19.21;26.79
62402;BME280;48440;51.224;22.506;2023-05-11T10:07:06;99706.28;;;19.37;26.74
62402;BME280;48440;51.224;22.506;2023-05-11T10:09:32;99707.09;;;19.37;26.18
62402;BME280;48440;51.224;22.506;2023-05-11T10:11:58;99712.31;;;19.39;26.16
62402;BME280;48440;51.224;22.506;2023-05-11T10:14:26;99702.63;;;19.41;26.07
62402;BME280;48440;51.224;22.506;2023-05-11T10:16:52;99705.44;;;19.22;26.13
62402;BME280;48440;51.224;22.506;2023-05-11T10:19:21;99691.09;;;19.39;26.49
62402;BME280;48440;51.224;22.506;2023-05-11T10:21:46;99694.09;;;19.56;26.73
62402;BME280;48440;51.224;22.506;2023-05-11T10:24:12;99695.56;;;19.68;26.55
62402;BME280;48440;51.224;22.506;2023-05-11T10:26:38;99691.84;;;19.45;26.32
62402;BME280;48440;51.224;22.506;2023-05-11T10:29:04;99698.72;;;19.28;25.78
62402;BME280;48440;51.224;22.506;2023-05-11T10:31:31;99690.88;;;19.22;26.02
62402;BME280;48440;51.224;22.506;2023-05-11T10:33:57;99686.81;;;19.19;26.73
62402;BME280;48440;51.224;22.506;2023-05-11T10:36:24;99684.06;;;19.33;26.11
62402;BME280;48440;51.224;22.506;2023-05-11T10:38:50;99677.66;;;19.38;25.55
62402;BME280;48440;51.224;22.506;2023-05-11T10:55:23;99672.53;;;19.31;26.26
62402;BME280;48440;51.224;22.506;2023-05-11T11:03:40;99676.09;;;19.18;26.78
62402;BME280;48440;51.224;22.506;2023-05-11T11:06:20;99672.63;;;19.12;26.16
62402;BME280;48440;51.224;22.506;2023-05-11T11:11:40;99660.56;;;18.76;26.19
62402;BME280;48440;51.224;22.506;2023-05-11T11:14:08;99663.63;;;18.74;27.05
62402;BME280;48440;51.224;22.506;2023-05-11T11:16:37;99671.72;;;18.84;27.41
62402;BME280;48440;51.224;22.506;2023-05-11T11:22:01;99658.00;;;18.98;27.09
62402;BME280;48440;51.224;22.506;2023-05-11T11:27:06;99662.66;;;18.84;26.07
62402;BME280;48440;51.224;22.506;2023-05-11T11:29:36;99663.22;;;18.67;26.64
62402;BME280;48440;51.224;22.506;2023-05-11T11:34:47;99664.84;;;18.68;26.64
62402;BME280;48440;51.224;22.506;2023-05-11T11:37:14;99660.47;;;18.67;26.43
62402;BME280;48440;51.224;22.506;2023-05-11T11:42:09;99650.53;;;18.47;26.47
62402;BME280;48440;51.224;22.506;2023-05-11T11:44:39;99657.97;;;18.47;26.68
62402;BME280;48440;51.224;22.506;2023-05-11T11:47:18;99658.28;;;18.45;26.92
62402;BME280;48440;51.224;22.506;2023-05-11T11:49:50;99646.78;;;18.43;26.56
62402;BME280;48440;51.224;22.506;2023-05-11T11:54:52;99657.75;;;18.24;26.55
62402;BME280;48440;51.224;22.506;2023-05-11T12:00:06;99653.53;;;18.13;27.03
62402;BME280;48440;51.224;22.506;2023-05-11T12:02:44;99648.53;;;17.96;26.99
62402;BME280;48440;51.224;22.506;2023-05-11T12:05:14;99653.59;;;18.08;27.50
62402;BME280;48440;51.224;22.506;2023-05-11T12:07:45;99640.63;;;18.14;27.45
62402;BME280;48440;51.224;22.506;2023-05-11T12:10:15;99642.03;;;18.11;27.42
62402;BME280;48440;51.224;22.506;2023-05-11T12:12:46;99647.75;;;18.15;27.40
62402;BME280;48440;51.224;22.506;2023-05-11T12:17:50;99639.56;;;18.10;26.99
62402;BME280;48440;51.224;22.506;2023-05-11T12:20:17;99636.78;;;18.15;26.75
62402;BME280;48440;51.224;22.506;2023-05-11T12:22:43;99625.31;;;18.08;27.31
62402;BME280;48440;51.224;22.506;2023-05-11T12:25:12;99625.91;;;18.05;27.41
62402;BME280;48440;51.224;22.506;2023-05-11T12:27:53;99637.72;;;18.05;27.72
62402;BME280;48440;51.224;22.506;2023-05-11T12:30:29;99623.69;;;18.07;27.08
62402;BME280;48440;51.224;22.506;2023-05-11T12:32:55;99633.09;;;18.01;27.12
62402;BME280;48440;51.224;22.506;2023-05-11T12:35:23;99635.84;;;17.82;26.87
62402;BME280;48440;51.224;22.506;2023-05-11T12:37:49;99622.63;;;17.84;27.51
62402;BME280;48440;51.224;22.506;2023-05-11T12:40:16;99624.78;;;17.87;27.63
62402;BME280;48440;51.224;22.506;2023-05-11T12:42:58;99621.16;;;17.91;27.96
62402;BME280;48440;51.224;22.506;2023-05-11T12:45:25;99622.88;;;17.87;27.55
62402;BME280;48440;51.224;22.506;2023-05-11T12:47:53;99616.91;;;17.80;27.82
62402;BME280;48440;51.224;22.506;2023-05-11T12:50:19;99627.31;;;17.83;27.52
62402;BME280;48440;51.224;22.506;2023-05-11T12:52:45;99622.41;;;17.80;27.23
62402;BME280;48440;51.224;22.506;2023-05-11T12:55:12;99617.56;;;17.72;26.91
62402;BME280;48440;51.224;22.506;2023-05-11T12:57:38;99618.66;;;17.71;27.36
62402;BME280;48440;51.224;22.506;2023-05-11T13:00:14;99621.19;;;17.68;27.39
62402;BME280;48440;51.224;22.506;2023-05-11T13:02:49;99621.78;;;17.65;27.02
62402;BME280;48440;51.224;22.506;2023-05-11T13:05:15;99619.88;;;17.65;27.40
62402;BME280;48440;51.224;22.506;2023-05-11T13:07:41;99614.41;;;17.60;27.21
62402;BME280;48440;51.224;22.506;2023-05-11T13:10:09;99608.09;;;17.59;27.49
62402;BME280;48440;51.224;22.506;2023-05-11T13:12:49;99608.69;;;17.56;27.94
62402;BME280;48440;51.224;22.506;2023-05-11T13:15:16;99596.59;;;17.57;27.62
62402;BME280;48440;51.224;22.506;2023-05-11T13:17:43;99608.69;;;17.56;27.58
62402;BME280;48440;51.224;22.506;2023-05-11T13:20:20;99607.34;;;17.54;27.77
62402;BME280;48440;51.224;22.506;2023-05-11T13:22:48;99616.69;;;17.53;27.04
62402;BME280;48440;51.224;22.506;2023-05-11T13:25:16;99605.19;;;17.51;27.55
62402;BME280;48440;51.224;22.506;2023-05-11T13:27:41;99591.47;;;17.51;27.50
62402;BME280;48440;51.224;22.506;2023-05-11T13:30:08;99598.59;;;17.52;27.74
62402;BME280;48440;51.224;22.506;2023-05-11T13:32:34;99596.41;;;17.49;27.88
62402;BME280;48440;51.224;22.506;2023-05-11T13:35:01;99590.16;;;17.43;27.12
62402;BME280;48440;51.224;22.506;2023-05-11T13:37:27;99589.34;;;17.43;27.80
62402;BME280;48440;51.224;22.506;2023-05-11T13:39:53;99589.88;;;17.45;28.13
62402;BME280;48440;51.224;22.506;2023-05-11T13:42:18;99601.16;;;17.43;27.09
62402;BME280;48440;51.224;22.506;2023-05-11T13:44:44;99594.25;;;17.46;27.61